BBC Emsland — V2QD7 — position and weather

sailwx.info

Track history (hours):
 
Tides and Currents Weather Stations Pressure Air Temp Water Temp Dewpoint Dewpoint Depression Visibility Wind Speed Wind Dir Waves Ship Positions

BBC Emsland

Last reported at 2018-May-20 16:45 UTC. Time now 2018-May-24 02:31 UTC.
Position N 22°48' E 117°04'.

Length 145 m; draft 5.5 m.

Type: Ship. MMSI: 305561000.

Date/timePositionNaut miles runAvg speedWind from/ knotsBaromVisibWave heightAir tempDewpointWater temp
2018-May-20 16:45N 22°48' E 117°04'311.8
2018-May-20 16:30N 22°50' E 117°07'612.0
2018-May-20 16:00N 22°53' E 117°12'3312.5
2018-May-20 13:21N 23°13' E 117°41'513.0
2018-May-20 12:56N 23°16' E 117°46'713.1
2018-May-20 12:23N 23°20' E 117°52'513.2
2018-May-20 11:59N 23°24' E 117°57'713.2
2018-May-20 11:30N 23°28' E 118°02'613.1
2018-May-20 11:00N 23°32' E 118°07'613.0
2018-May-20 10:30N 23°36' E 118°13'613.0
2018-May-20 10:01N 23°40' E 118°18'713.0
2018-May-20 09:29N 23°45' E 118°24'712.9
2018-May-20 08:58N 23°49' E 118°30'612.9
2018-May-20 08:29N 23°53' E 118°35'612.8
2018-May-20 08:00N 23°57' E 118°40'612.7
2018-May-20 07:30N 24°01' E 118°45'612.6
2018-May-20 07:00N 24°05' E 118°50'612.7
2018-May-20 06:30N 24°10' E 118°55'712.6
2018-May-20 05:58N 24°14' E 119°01'712.2
2018-May-20 05:22N 24°19' E 119°07'  
Track history (hours):
 
Tides and Currents Weather Stations Pressure Air Temp Water Temp Dewpoint Dewpoint Depression Visibility Wind Speed Wind Dir Waves Ship Positions

BBC Emsland

Last reported at 2018-May-20 16:45 UTC. Time now 2018-May-24 02:31 UTC.
Position N 22°48' E 117°04'.

Length 145 m; draft 5.5 m.

Type: Ship. MMSI: 305561000.

Date/timePositionNaut miles runAvg speedWind from/ knotsBaromVisibWave heightAir tempDewpointWater temp
2018-May-20 16:45N 22°48' E 117°04'311.8
2018-May-20 16:30N 22°50' E 117°07'612.0
2018-May-20 16:00N 22°53' E 117°12'3312.5
2018-May-20 13:21N 23°13' E 117°41'513.0
2018-May-20 12:56N 23°16' E 117°46'713.1
2018-May-20 12:23N 23°20' E 117°52'513.2
2018-May-20 11:59N 23°24' E 117°57'713.2
2018-May-20 11:30N 23°28' E 118°02'613.1
2018-May-20 11:00N 23°32' E 118°07'613.0
2018-May-20 10:30N 23°36' E 118°13'613.0
2018-May-20 10:01N 23°40' E 118°18'713.0
2018-May-20 09:29N 23°45' E 118°24'712.9
2018-May-20 08:58N 23°49' E 118°30'612.9
2018-May-20 08:29N 23°53' E 118°35'612.8
2018-May-20 08:00N 23°57' E 118°40'612.7
2018-May-20 07:30N 24°01' E 118°45'612.6
2018-May-20 07:00N 24°05' E 118°50'612.7
2018-May-20 06:30N 24°10' E 118°55'712.6
2018-May-20 05:58N 24°14' E 119°01'712.2
2018-May-20 05:22N 24°19' E 119°07'  

Dump ship's entire track history